KNTD/NTD METAR and TAF weather

Enter ICAO airport designator
Station Type Date Time Source
KNTD METAR 2018/12/13 22:57 UTC NOAA

KNTD 132257Z 18006KT 10SM FEW280 21/07 A3015 RMK AO2 SLP210 T02060067 $


Station Type Date Time Source
KNTD Decoded METAR 2018/12/13 22:57 UTC NOAA

NAWCWPNS POINT MUGU, CA, CA, United States (KNTD) 34-07N 119-07W 2M
Dec 13, 2018 - 05:57 PM EST / 2018.12.13 2257 UTC
Wind: from the S (180 degrees) at 7 MPH (6 KT):0
Visibility: 10 mile(s):0
Sky conditions: mostly clear
Temperature: 69.1 F (20.6 C)
Dew Point: 44.1 F (6.7 C)
Relative Humidity: 40%
Pressure (altimeter): 30.15 in. Hg (1020 hPa)
ob: KNTD 132257Z 18006KT 10SM FEW280 21/07 A3015 RMK AO2 SLP210 T02060067
cycle: 23

Station Type Date Time Source
KNTD TAF 2018/12/13 23:03 UTC NOAA

TAF KNTD 1323/1423 VRB06KT 9999 FEW280 QNH3011INS
TEMPO 1323/1402 18008KT
BECMG 1404/1406 07010KT 9999 SCT260 QNH3010INS
FM141200 07009KT 9999 FEW180 BKN260 QNH3007INS
BECMG 1419/1421 23009KT 9999 FEW120 SCT180 BKN260 QNH3006INS AUTOMATED SENSOR METWATCH 1407 TIL 1414 T10/1413Z T20/1420Z FS30101


Example: see airport list